sensor_id;sensor_type;location;lat;lon;timestamp;temperature;humidity
14411;DHT22;7290;50.854;4.354;2023-07-09T00:01:05;27.10;99.90
14411;DHT22;7290;50.854;4.354;2023-07-09T00:03:31;27.10;99.90
14411;DHT22;7290;50.854;4.354;2023-07-09T00:05:58;27.00;99.90
14411;DHT22;7290;50.854;4.354;2023-07-09T00:08:26;27.00;99.90
14411;DHT22;7290;50.854;4.354;2023-07-09T00:10:53;27.00;99.90
14411;DHT22;7290;50.854;4.354;2023-07-09T00:13:20;26.90;99.90
14411;DHT22;7290;50.854;4.354;2023-07-09T00:15:47;26.90;99.90
14411;DHT22;7290;50.854;4.354;2023-07-09T00:18:14;26.90;99.90
14411;DHT22;7290;50.854;4.354;2023-07-09T00:20:40;26.90;99.90
14411;DHT22;7290;50.854;4.354;2023-07-09T00:23:09;26.90;99.90
14411;DHT22;7290;50.854;4.354;2023-07-09T00:25:39;26.90;99.90
14411;DHT22;7290;50.854;4.354;2023-07-09T00:28:11;26.80;99.90
14411;DHT22;7290;50.854;4.354;2023-07-09T00:30:38;26.80;99.90
14411;DHT22;7290;50.854;4.354;2023-07-09T00:33:04;26.80;99.90
14411;DHT22;7290;50.854;4.354;2023-07-09T00:35:30;26.80;99.90
14411;DHT22;7290;50.854;4.354;2023-07-09T00:37:56;26.70;99.90
14411;DHT22;7290;50.854;4.354;2023-07-09T00:40:26;26.70;99.90
14411;DHT22;7290;50.854;4.354;2023-07-09T00:42:54;26.70;99.90
14411;DHT22;7290;50.854;4.354;2023-07-09T00:45:22;26.70;99.90
14411;DHT22;7290;50.854;4.354;2023-07-09T00:47:53;26.70;99.90
14411;DHT22;7290;50.854;4.354;2023-07-09T00:50:35;26.70;99.90
14411;DHT22;7290;50.854;4.354;2023-07-09T00:53:08;26.60;99.90
14411;DHT22;7290;50.854;4.354;2023-07-09T00:55:39;26.60;99.90
14411;DHT22;7290;50.854;4.354;2023-07-09T00:58:11;26.60;99.90
14411;DHT22;7290;50.854;4.354;2023-07-09T01:00:44;26.50;99.90
14411;DHT22;7290;50.854;4.354;2023-07-09T01:03:20;26.50;99.90
14411;DHT22;7290;50.854;4.354;2023-07-09T01:05:49;26.50;99.90
14411;DHT22;7290;50.854;4.354;2023-07-09T01:08:18;26.40;99.90
14411;DHT22;7290;50.854;4.354;2023-07-09T01:10:46;26.40;99.90
14411;DHT22;7290;50.854;4.354;2023-07-09T01:13:12;26.40;99.90
14411;DHT22;7290;50.854;4.354;2023-07-09T01:15:38;26.40;99.90
14411;DHT22;7290;50.854;4.354;2023-07-09T01:18:05;26.20;99.90
14411;DHT22;7290;50.854;4.354;2023-07-09T01:20:31;26.30;99.90
14411;DHT22;7290;50.854;4.354;2023-07-09T01:22:59;26.30;99.90
14411;DHT22;7290;50.854;4.354;2023-07-09T01:25:26;26.20;99.90
14411;DHT22;7290;50.854;4.354;2023-07-09T01:27:54;26.20;99.90
14411;DHT22;7290;50.854;4.354;2023-07-09T01:30:32;26.20;99.90
14411;DHT22;7290;50.854;4.354;2023-07-09T01:33:00;26.20;99.90
14411;DHT22;7290;50.854;4.354;2023-07-09T01:35:28;26.20;99.90
14411;DHT22;7290;50.854;4.354;2023-07-09T01:37:55;26.20;99.90
14411;DHT22;7290;50.854;4.354;2023-07-09T01:40:23;26.20;99.90
14411;DHT22;7290;50.854;4.354;2023-07-09T01:42:51;26.20;99.90
14411;DHT22;7290;50.854;4.354;2023-07-09T01:45:17;26.20;99.90
14411;DHT22;7290;50.854;4.354;2023-07-09T01:47:45;26.20;99.90
14411;DHT22;7290;50.854;4.354;2023-07-09T01:50:12;26.30;99.90
14411;DHT22;7290;50.854;4.354;2023-07-09T01:52:40;26.40;99.90
14411;DHT22;7290;50.854;4.354;2023-07-09T01:55:09;26.40;99.90
14411;DHT22;7290;50.854;4.354;2023-07-09T01:57:36;26.30;99.90
14411;DHT22;7290;50.854;4.354;2023-07-09T02:00:06;26.30;99.90
14411;DHT22;7290;50.854;4.354;2023-07-09T02:02:34;26.40;99.90
14411;DHT22;7290;50.854;4.354;2023-07-09T02:05:01;26.40;99.90
14411;DHT22;7290;50.854;4.354;2023-07-09T02:07:28;26.50;99.90
14411;DHT22;7290;50.854;4.354;2023-07-09T02:09:54;26.50;99.90
14411;DHT22;7290;50.854;4.354;2023-07-09T02:12:20;26.60;99.90
14411;DHT22;7290;50.854;4.354;2023-07-09T02:14:47;26.50;99.90
14411;DHT22;7290;50.854;4.354;2023-07-09T02:17:14;26.50;99.90
14411;DHT22;7290;50.854;4.354;2023-07-09T02:19:40;26.50;99.90
14411;DHT22;7290;50.854;4.354;2023-07-09T02:22:07;26.50;99.90
14411;DHT22;7290;50.854;4.354;2023-07-09T02:24:33;26.50;99.90
14411;DHT22;7290;50.854;4.354;2023-07-09T02:27:01;26.50;99.90
14411;DHT22;7290;50.854;4.354;2023-07-09T02:29:28;26.40;99.90
14411;DHT22;7290;50.854;4.354;2023-07-09T02:31:57;26.30;99.90
14411;DHT22;7290;50.854;4.354;2023-07-09T02:34:24;26.20;99.90
14411;DHT22;7290;50.854;4.354;2023-07-09T02:36:51;26.20;99.90
14411;DHT22;7290;50.854;4.354;2023-07-09T02:39:18;26.10;99.90
14411;DHT22;7290;50.854;4.354;2023-07-09T02:41:45;26.10;99.90
14411;DHT22;7290;50.854;4.354;2023-07-09T02:44:11;25.90;99.90
14411;DHT22;7290;50.854;4.354;2023-07-09T02:46:37;25.80;99.90
14411;DHT22;7290;50.854;4.354;2023-07-09T02:49:05;25.80;99.90
14411;DHT22;7290;50.854;4.354;2023-07-09T02:51:32;25.90;99.90
14411;DHT22;7290;50.854;4.354;2023-07-09T02:54:00;26.00;99.90
14411;DHT22;7290;50.854;4.354;2023-07-09T02:56:26;25.90;99.90
14411;DHT22;7290;50.854;4.354;2023-07-09T02:58:53;26.00;99.90
14411;DHT22;7290;50.854;4.354;2023-07-09T03:01:19;26.00;99.90
14411;DHT22;7290;50.854;4.354;2023-07-09T03:03:50;26.00;99.90
14411;DHT22;7290;50.854;4.354;2023-07-09T03:06:17;26.10;99.90
14411;DHT22;7290;50.854;4.354;2023-07-09T03:08:43;26.00;99.90
14411;DHT22;7290;50.854;4.354;2023-07-09T03:11:10;26.10;99.90
14411;DHT22;7290;50.854;4.354;2023-07-09T03:13:36;25.90;99.90
14411;DHT22;7290;50.854;4.354;2023-07-09T03:16:02;25.80;99.90
14411;DHT22;7290;50.854;4.354;2023-07-09T03:18:29;25.90;99.90
14411;DHT22;7290;50.854;4.354;2023-07-09T03:20:54;25.90;99.90
14411;DHT22;7290;50.854;4.354;2023-07-09T03:23:22;25.90;99.90
14411;DHT22;7290;50.854;4.354;2023-07-09T03:25:48;25.80;99.90
14411;DHT22;7290;50.854;4.354;2023-07-09T03:28:14;25.70;99.90
14411;DHT22;7290;50.854;4.354;2023-07-09T03:30:41;25.70;99.90
14411;DHT22;7290;50.854;4.354;2023-07-09T03:33:07;25.90;99.90
14411;DHT22;7290;50.854;4.354;2023-07-09T03:35:33;25.90;99.90
14411;DHT22;7290;50.854;4.354;2023-07-09T03:38:00;25.90;99.90
14411;DHT22;7290;50.854;4.354;2023-07-09T03:40:27;25.90;99.90
14411;DHT22;7290;50.854;4.354;2023-07-09T03:42:53;25.70;99.90
14411;DHT22;7290;50.854;4.354;2023-07-09T03:45:19;25.70;99.90
14411;DHT22;7290;50.854;4.354;2023-07-09T03:47:45;25.60;99.90
14411;DHT22;7290;50.854;4.354;2023-07-09T03:50:11;25.50;99.90
14411;DHT22;7290;50.854;4.354;2023-07-09T03:52:37;25.50;99.90
14411;DHT22;7290;50.854;4.354;2023-07-09T03:55:04;25.40;99.90
14411;DHT22;7290;50.854;4.354;2023-07-09T03:57:31;25.40;99.90
14411;DHT22;7290;50.854;4.354;2023-07-09T03:59:57;25.30;99.90
14411;DHT22;7290;50.854;4.354;2023-07-09T04:02:23;25.20;99.90
14411;DHT22;7290;50.854;4.354;2023-07-09T04:04:49;25.20;99.90
14411;DHT22;7290;50.854;4.354;2023-07-09T04:07:15;25.10;99.90
14411;DHT22;7290;50.854;4.354;2023-07-09T04:09:42;25.10;99.90
14411;DHT22;7290;50.854;4.354;2023-07-09T04:12:09;25.10;99.90
14411;DHT22;7290;50.854;4.354;2023-07-09T04:14:36;24.90;99.90
14411;DHT22;7290;50.854;4.354;2023-07-09T04:17:02;24.80;99.90
14411;DHT22;7290;50.854;4.354;2023-07-09T04:19:28;24.90;99.90
14411;DHT22;7290;50.854;4.354;2023-07-09T04:21:55;25.00;99.90
14411;DHT22;7290;50.854;4.354;2023-07-09T04:24:21;25.10;99.90
14411;DHT22;7290;50.854;4.354;2023-07-09T04:26:48;25.10;99.90
14411;DHT22;7290;50.854;4.354;2023-07-09T04:29:14;25.10;99.90
14411;DHT22;7290;50.854;4.354;2023-07-09T04:31:41;25.10;99.90
14411;DHT22;7290;50.854;4.354;2023-07-09T04:34:07;25.10;99.90
14411;DHT22;7290;50.854;4.354;2023-07-09T04:36:34;25.10;99.90
14411;DHT22;7290;50.854;4.354;2023-07-09T04:39:00;25.10;99.90
14411;DHT22;7290;50.854;4.354;2023-07-09T04:41:26;25.20;99.90
14411;DHT22;7290;50.854;4.354;2023-07-09T04:43:53;25.20;99.90
14411;DHT22;7290;50.854;4.354;2023-07-09T04:46:19;25.30;99.90
14411;DHT22;7290;50.854;4.354;2023-07-09T04:48:45;25.30;99.90
14411;DHT22;7290;50.854;4.354;2023-07-09T04:51:11;25.30;99.90
14411;DHT22;7290;50.854;4.354;2023-07-09T04:53:37;25.20;99.90
14411;DHT22;7290;50.854;4.354;2023-07-09T04:56:04;25.20;99.90
14411;DHT22;7290;50.854;4.354;2023-07-09T04:58:30;25.20;99.90
14411;DHT22;7290;50.854;4.354;2023-07-09T05:00:57;25.30;99.90
14411;DHT22;7290;50.854;4.354;2023-07-09T05:03:23;25.30;99.90
14411;DHT22;7290;50.854;4.354;2023-07-09T05:05:49;25.60;99.90
14411;DHT22;7290;50.854;4.354;2023-07-09T05:08:16;25.90;99.90
14411;DHT22;7290;50.854;4.354;2023-07-09T05:10:42;26.50;99.90
14411;DHT22;7290;50.854;4.354;2023-07-09T05:13:09;27.10;99.90
14411;DHT22;7290;50.854;4.354;2023-07-09T05:15:37;27.80;99.90
14411;DHT22;7290;50.854;4.354;2023-07-09T05:18:03;28.30;99.90
14411;DHT22;7290;50.854;4.354;2023-07-09T05:20:29;28.50;99.90
14411;DHT22;7290;50.854;4.354;2023-07-09T05:22:56;28.80;99.90
14411;DHT22;7290;50.854;4.354;2023-07-09T05:25:22;29.10;99.90
14411;DHT22;7290;50.854;4.354;2023-07-09T05:27:48;29.40;99.90
14411;DHT22;7290;50.854;4.354;2023-07-09T05:30:14;29.50;99.90
14411;DHT22;7290;50.854;4.354;2023-07-09T05:32:41;29.70;99.90
14411;DHT22;7290;50.854;4.354;2023-07-09T05:35:08;29.70;99.90
14411;DHT22;7290;50.854;4.354;2023-07-09T05:37:35;29.80;99.90
14411;DHT22;7290;50.854;4.354;2023-07-09T05:40:02;29.30;99.90
14411;DHT22;7290;50.854;4.354;2023-07-09T05:42:29;29.40;99.90
14411;DHT22;7290;50.854;4.354;2023-07-09T05:44:56;29.70;99.90
14411;DHT22;7290;50.854;4.354;2023-07-09T05:47:22;29.90;99.90
14411;DHT22;7290;50.854;4.354;2023-07-09T05:49:48;30.20;99.90
14411;DHT22;7290;50.854;4.354;2023-07-09T05:52:16;30.30;99.90
14411;DHT22;7290;50.854;4.354;2023-07-09T05:54:42;30.60;99.90
14411;DHT22;7290;50.854;4.354;2023-07-09T05:57:10;30.70;99.90
14411;DHT22;7290;50.854;4.354;2023-07-09T05:59:36;30.80;99.90
14411;DHT22;7290;50.854;4.354;2023-07-09T06:02:02;31.20;99.90
14411;DHT22;7290;50.854;4.354;2023-07-09T06:04:29;30.80;99.90
14411;DHT22;7290;50.854;4.354;2023-07-09T06:06:56;30.50;99.90
14411;DHT22;7290;50.854;4.354;2023-07-09T06:09:22;30.20;99.90
14411;DHT22;7290;50.854;4.354;2023-07-09T06:11:48;30.10;99.90
14411;DHT22;7290;50.854;4.354;2023-07-09T06:14:15;30.20;99.90
14411;DHT22;7290;50.854;4.354;2023-07-09T06:16:42;30.60;99.90
14411;DHT22;7290;50.854;4.354;2023-07-09T06:19:09;30.60;99.90
14411;DHT22;7290;50.854;4.354;2023-07-09T06:21:35;30.40;99.90
14411;DHT22;7290;50.854;4.354;2023-07-09T06:24:01;30.50;99.90
14411;DHT22;7290;50.854;4.354;2023-07-09T06:26:27;30.60;99.90
14411;DHT22;7290;50.854;4.354;2023-07-09T06:28:54;30.40;99.90
14411;DHT22;7290;50.854;4.354;2023-07-09T06:31:20;30.60;99.90
14411;DHT22;7290;50.854;4.354;2023-07-09T06:33:47;30.80;99.90
14411;DHT22;7290;50.854;4.354;2023-07-09T06:36:13;31.20;99.90
14411;DHT22;7290;50.854;4.354;2023-07-09T06:38:39;31.10;99.90
14411;DHT22;7290;50.854;4.354;2023-07-09T06:41:05;30.90;99.90
14411;DHT22;7290;50.854;4.354;2023-07-09T06:43:31;31.70;99.90
14411;DHT22;7290;50.854;4.354;2023-07-09T06:45:59;32.30;99.90
14411;DHT22;7290;50.854;4.354;2023-07-09T06:48:27;32.30;99.90
14411;DHT22;7290;50.854;4.354;2023-07-09T06:50:56;32.40;99.90
14411;DHT22;7290;50.854;4.354;2023-07-09T06:53:22;32.30;99.90
14411;DHT22;7290;50.854;4.354;2023-07-09T06:55:48;32.20;99.90
14411;DHT22;7290;50.854;4.354;2023-07-09T06:58:15;32.70;99.90
14411;DHT22;7290;50.854;4.354;2023-07-09T07:00:42;33.10;99.90
14411;DHT22;7290;50.854;4.354;2023-07-09T07:03:09;33.70;99.90
14411;DHT22;7290;50.854;4.354;2023-07-09T07:05:36;34.60;99.60
14411;DHT22;7290;50.854;4.354;2023-07-09T07:08:03;34.80;99.10
14411;DHT22;7290;50.854;4.354;2023-07-09T07:10:29;34.70;99.00
14411;DHT22;7290;50.854;4.354;2023-07-09T07:12:56;34.60;98.90
14411;DHT22;7290;50.854;4.354;2023-07-09T07:15:22;34.20;99.40
14411;DHT22;7290;50.854;4.354;2023-07-09T07:17:48;34.30;99.10
14411;DHT22;7290;50.854;4.354;2023-07-09T07:20:15;33.70;99.90
14411;DHT22;7290;50.854;4.354;2023-07-09T07:22:42;33.50;99.90
14411;DHT22;7290;50.854;4.354;2023-07-09T07:25:09;34.10;99.40
14411;DHT22;7290;50.854;4.354;2023-07-09T07:27:36;34.20;99.40
14411;DHT22;7290;50.854;4.354;2023-07-09T07:30:04;34.20;99.40
14411;DHT22;7290;50.854;4.354;2023-07-09T07:32:30;34.20;98.90
14411;DHT22;7290;50.854;4.354;2023-07-09T07:34:57;34.00;99.20
14411;DHT22;7290;50.854;4.354;2023-07-09T07:37:23;34.10;98.80
14411;DHT22;7290;50.854;4.354;2023-07-09T07:39:49;34.10;98.90
14411;DHT22;7290;50.854;4.354;2023-07-09T07:42:16;34.50;98.30
14411;DHT22;7290;50.854;4.354;2023-07-09T07:44:42;34.40;98.00
14411;DHT22;7290;50.854;4.354;2023-07-09T07:47:08;34.10;98.30
14411;DHT22;7290;50.854;4.354;2023-07-09T07:49:34;33.80;98.20
14411;DHT22;7290;50.854;4.354;2023-07-09T07:52:01;33.60;98.60
14411;DHT22;7290;50.854;4.354;2023-07-09T07:54:29;34.10;97.80
14411;DHT22;7290;50.854;4.354;2023-07-09T07:56:57;34.00;97.40
14411;DHT22;7290;50.854;4.354;2023-07-09T07:59:23;33.20;97.80
14411;DHT22;7290;50.854;4.354;2023-07-09T08:01:49;33.20;98.40
14411;DHT22;7290;50.854;4.354;2023-07-09T08:04:16;33.90;97.60
14411;DHT22;7290;50.854;4.354;2023-07-09T08:06:42;34.70;97.10
14411;DHT22;7290;50.854;4.354;2023-07-09T08:09:08;34.50;96.50
14411;DHT22;7290;50.854;4.354;2023-07-09T08:11:34;34.20;96.90
14411;DHT22;7290;50.854;4.354;2023-07-09T08:14:01;34.40;96.50
14411;DHT22;7290;50.854;4.354;2023-07-09T08:16:27;34.50;96.20
14411;DHT22;7290;50.854;4.354;2023-07-09T08:18:53;34.50;95.50
14411;DHT22;7290;50.854;4.354;2023-07-09T08:21:20;34.50;95.30
14411;DHT22;7290;50.854;4.354;2023-07-09T08:23:46;35.00;94.90
14411;DHT22;7290;50.854;4.354;2023-07-09T08:26:12;35.70;93.80
14411;DHT22;7290;50.854;4.354;2023-07-09T08:28:38;36.40;93.30
14411;DHT22;7290;50.854;4.354;2023-07-09T08:31:05;36.70;92.70
14411;DHT22;7290;50.854;4.354;2023-07-09T08:33:31;36.60;92.80
14411;DHT22;7290;50.854;4.354;2023-07-09T08:35:57;36.30;93.20
14411;DHT22;7290;50.854;4.354;2023-07-09T08:38:23;36.30;93.00
14411;DHT22;7290;50.854;4.354;2023-07-09T08:40:54;36.40;93.20
14411;DHT22;7290;50.854;4.354;2023-07-09T08:43:30;36.50;93.10
14411;DHT22;7290;50.854;4.354;2023-07-09T08:46:02;36.70;92.70
14411;DHT22;7290;50.854;4.354;2023-07-09T08:48:32;36.70;92.50
14411;DHT22;7290;50.854;4.354;2023-07-09T08:51:01;36.70;92.80
14411;DHT22;7290;50.854;4.354;2023-07-09T08:53:46;36.90;92.40
14411;DHT22;7290;50.854;4.354;2023-07-09T08:56:15;36.40;92.50
14411;DHT22;7290;50.854;4.354;2023-07-09T08:58:43;36.40;92.10
14411;DHT22;7290;50.854;4.354;2023-07-09T09:01:17;36.10;92.60
14411;DHT22;7290;50.854;4.354;2023-07-09T09:03:48;36.30;93.00
14411;DHT22;7290;50.854;4.354;2023-07-09T09:06:18;36.30;93.00
14411;DHT22;7290;50.854;4.354;2023-07-09T09:08:54;36.70;92.90
14411;DHT22;7290;50.854;4.354;2023-07-09T09:11:32;36.80;92.50
14411;DHT22;7290;50.854;4.354;2023-07-09T09:14:03;37.00;92.10
14411;DHT22;7290;50.854;4.354;2023-07-09T09:16:33;37.50;91.90
14411;DHT22;7290;50.854;4.354;2023-07-09T09:19:01;36.90;91.70
14411;DHT22;7290;50.854;4.354;2023-07-09T09:21:32;37.00;91.80
14411;DHT22;7290;50.854;4.354;2023-07-09T09:24:12;36.90;92.20
14411;DHT22;7290;50.854;4.354;2023-07-09T09:26:42;36.60;92.20
14411;DHT22;7290;50.854;4.354;2023-07-09T09:29:11;37.00;91.90
14411;DHT22;7290;50.854;4.354;2023-07-09T09:31:38;37.90;91.60
14411;DHT22;7290;50.854;4.354;2023-07-09T09:34:04;37.90;91.20
14411;DHT22;7290;50.854;4.354;2023-07-09T09:36:31;37.60;91.20
14411;DHT22;7290;50.854;4.354;2023-07-09T09:39:02;37.40;91.50
14411;DHT22;7290;50.854;4.354;2023-07-09T09:41:30;37.40;91.60
14411;DHT22;7290;50.854;4.354;2023-07-09T09:43:59;37.50;91.60
14411;DHT22;7290;50.854;4.354;2023-07-09T09:46:26;37.40;91.80
14411;DHT22;7290;50.854;4.354;2023-07-09T09:48:55;37.00;91.90
14411;DHT22;7290;50.854;4.354;2023-07-09T09:51:23;36.70;92.20
14411;DHT22;7290;50.854;4.354;2023-07-09T09:53:51;36.40;92.80
14411;DHT22;7290;50.854;4.354;2023-07-09T09:56:23;37.00;92.20
14411;DHT22;7290;50.854;4.354;2023-07-09T09:58:52;36.70;92.60
14411;DHT22;7290;50.854;4.354;2023-07-09T10:01:21;36.50;92.80
14411;DHT22;7290;50.854;4.354;2023-07-09T10:03:51;37.00;92.00
14411;DHT22;7290;50.854;4.354;2023-07-09T10:06:27;36.20;92.30
14411;DHT22;7290;50.854;4.354;2023-07-09T10:08:57;36.20;92.80
14411;DHT22;7290;50.854;4.354;2023-07-09T10:11:30;36.50;92.90
14411;DHT22;7290;50.854;4.354;2023-07-09T10:14:03;36.60;92.70
14411;DHT22;7290;50.854;4.354;2023-07-09T10:16:34;36.40;92.50
14411;DHT22;7290;50.854;4.354;2023-07-09T10:19:12;36.80;92.70
14411;DHT22;7290;50.854;4.354;2023-07-09T10:21:45;37.00;92.30
14411;DHT22;7290;50.854;4.354;2023-07-09T10:24:33;35.40;93.50
14411;DHT22;7290;50.854;4.354;2023-07-09T10:27:08;34.50;94.90
14411;DHT22;7290;50.854;4.354;2023-07-09T10:29:46;34.10;95.70
14411;DHT22;7290;50.854;4.354;2023-07-09T10:32:28;33.70;95.70
14411;DHT22;7290;50.854;4.354;2023-07-09T10:35:01;33.40;96.40
14411;DHT22;7290;50.854;4.354;2023-07-09T10:37:46;32.90;96.70
14411;DHT22;7290;50.854;4.354;2023-07-09T10:43:02;32.30;97.80
14411;DHT22;7290;50.854;4.354;2023-07-09T10:45:31;32.30;97.90
14411;DHT22;7290;50.854;4.354;2023-07-09T10:48:06;32.10;98.10
14411;DHT22;7290;50.854;4.354;2023-07-09T10:50:37;31.60;98.30
14411;DHT22;7290;50.854;4.354;2023-07-09T10:53:14;31.30;98.90
14411;DHT22;7290;50.854;4.354;2023-07-09T10:55:50;30.80;99.40
14411;DHT22;7290;50.854;4.354;2023-07-09T10:58:27;30.10;99.90
14411;DHT22;7290;50.854;4.354;2023-07-09T11:00:56;30.00;99.90
14411;DHT22;7290;50.854;4.354;2023-07-09T11:03:32;30.10;99.90
14411;DHT22;7290;50.854;4.354;2023-07-09T11:06:00;30.70;99.90
14411;DHT22;7290;50.854;4.354;2023-07-09T11:08:31;30.80;99.60
14411;DHT22;7290;50.854;4.354;2023-07-09T11:11:02;30.90;99.40
14411;DHT22;7290;50.854;4.354;2023-07-09T11:13:35;31.00;98.90
14411;DHT22;7290;50.854;4.354;2023-07-09T11:16:04;30.80;99.10
14411;DHT22;7290;50.854;4.354;2023-07-09T11:18:33;30.90;99.40
14411;DHT22;7290;50.854;4.354;2023-07-09T11:21:00;30.70;99.20
14411;DHT22;7290;50.854;4.354;2023-07-09T11:23:38;30.30;99.90
14411;DHT22;7290;50.854;4.354;2023-07-09T11:26:11;30.00;99.90
14411;DHT22;7290;50.854;4.354;2023-07-09T11:28:40;29.80;99.90
14411;DHT22;7290;50.854;4.354;2023-07-09T11:31:08;29.60;99.90
14411;DHT22;7290;50.854;4.354;2023-07-09T11:33:44;29.10;99.90
14411;DHT22;7290;50.854;4.354;2023-07-09T11:36:11;29.20;99.90
14411;DHT22;7290;50.854;4.354;2023-07-09T11:38:40;29.20;99.90
14411;DHT22;7290;50.854;4.354;2023-07-09T11:41:24;29.30;99.90
14411;DHT22;7290;50.854;4.354;2023-07-09T11:43:51;29.30;99.90
14411;DHT22;7290;50.854;4.354;2023-07-09T11:46:20;29.30;99.90
14411;DHT22;7290;50.854;4.354;2023-07-09T11:48:48;29.30;99.90
14411;DHT22;7290;50.854;4.354;2023-07-09T11:51:17;29.20;99.90
14411;DHT22;7290;50.854;4.354;2023-07-09T11:53:49;28.90;99.90
14411;DHT22;7290;50.854;4.354;2023-07-09T11:56:18;28.80;99.90
14411;DHT22;7290;50.854;4.354;2023-07-09T11:58:48;28.70;99.90
14411;DHT22;7290;50.854;4.354;2023-07-09T12:01:17;28.60;99.90
14411;DHT22;7290;50.854;4.354;2023-07-09T12:03:45;28.40;99.90
14411;DHT22;7290;50.854;4.354;2023-07-09T12:06:18;28.10;99.90
14411;DHT22;7290;50.854;4.354;2023-07-09T12:08:46;27.90;99.90
14411;DHT22;7290;50.854;4.354;2023-07-09T12:11:20;27.80;99.90
14411;DHT22;7290;50.854;4.354;2023-07-09T12:13:46;27.80;99.90
14411;DHT22;7290;50.854;4.354;2023-07-09T12:16:24;27.80;99.90
14411;DHT22;7290;50.854;4.354;2023-07-09T12:18:50;27.90;99.90
14411;DHT22;7290;50.854;4.354;2023-07-09T12:21:17;27.70;99.90
14411;DHT22;7290;50.854;4.354;2023-07-09T12:23:43;27.60;99.90
14411;DHT22;7290;50.854;4.354;2023-07-09T12:26:13;27.60;99.90
14411;DHT22;7290;50.854;4.354;2023-07-09T12:28:40;27.30;99.90
14411;DHT22;7290;50.854;4.354;2023-07-09T12:31:12;27.20;99.90
14411;DHT22;7290;50.854;4.354;2023-07-09T12:33:47;27.20;99.90
14411;DHT22;7290;50.854;4.354;2023-07-09T12:36:14;27.10;99.90
14411;DHT22;7290;50.854;4.354;2023-07-09T12:38:44;26.70;99.90
14411;DHT22;7290;50.854;4.354;2023-07-09T12:41:19;26.40;99.90
14411;DHT22;7290;50.854;4.354;2023-07-09T12:43:46;26.00;99.90
14411;DHT22;7290;50.854;4.354;2023-07-09T12:46:12;25.80;99.90
14411;DHT22;7290;50.854;4.354;2023-07-09T12:48:42;25.90;99.90
14411;DHT22;7290;50.854;4.354;2023-07-09T12:51:09;25.90;99.90
14411;DHT22;7290;50.854;4.354;2023-07-09T12:53:36;25.90;99.90
14411;DHT22;7290;50.854;4.354;2023-07-09T12:56:11;25.90;99.90
14411;DHT22;7290;50.854;4.354;2023-07-09T12:58:38;25.80;99.90
14411;DHT22;7290;50.854;4.354;2023-07-09T13:01:07;25.90;99.90
14411;DHT22;7290;50.854;4.354;2023-07-09T13:03:34;26.00;99.90
14411;DHT22;7290;50.854;4.354;2023-07-09T13:06:01;26.20;99.90
14411;DHT22;7290;50.854;4.354;2023-07-09T13:08:30;26.50;99.90
14411;DHT22;7290;50.854;4.354;2023-07-09T13:10:57;26.60;99.90
14411;DHT22;7290;50.854;4.354;2023-07-09T13:13:24;26.60;99.90
14411;DHT22;7290;50.854;4.354;2023-07-09T13:15:52;26.50;99.90
14411;DHT22;7290;50.854;4.354;2023-07-09T13:18:22;26.60;99.90
14411;DHT22;7290;50.854;4.354;2023-07-09T13:20:49;26.70;99.90
14411;DHT22;7290;50.854;4.354;2023-07-09T13:23:17;26.90;99.90
14411;DHT22;7290;50.854;4.354;2023-07-09T13:25:44;27.10;99.90
14411;DHT22;7290;50.854;4.354;2023-07-09T13:28:18;27.20;99.90
14411;DHT22;7290;50.854;4.354;2023-07-09T13:30:45;27.40;99.90
14411;DHT22;7290;50.854;4.354;2023-07-09T13:33:12;27.20;99.90
14411;DHT22;7290;50.854;4.354;2023-07-09T13:35:39;26.80;99.90
14411;DHT22;7290;50.854;4.354;2023-07-09T13:38:13;26.80;99.90
14411;DHT22;7290;50.854;4.354;2023-07-09T13:40:39;26.80;99.90
14411;DHT22;7290;50.854;4.354;2023-07-09T13:43:10;26.80;99.90
14411;DHT22;7290;50.854;4.354;2023-07-09T13:45:36;26.70;99.90
14411;DHT22;7290;50.854;4.354;2023-07-09T13:48:04;26.90;99.90
14411;DHT22;7290;50.854;4.354;2023-07-09T13:50:31;27.00;99.90
14411;DHT22;7290;50.854;4.354;2023-07-09T13:52:57;27.10;99.90
14411;DHT22;7290;50.854;4.354;2023-07-09T13:55:23;27.20;99.90
14411;DHT22;7290;50.854;4.354;2023-07-09T13:57:50;27.20;99.90
14411;DHT22;7290;50.854;4.354;2023-07-09T14:00:17;27.30;99.90
14411;DHT22;7290;50.854;4.354;2023-07-09T14:02:44;27.40;99.90
14411;DHT22;7290;50.854;4.354;2023-07-09T14:05:13;27.70;99.90
14411;DHT22;7290;50.854;4.354;2023-07-09T14:07:41;27.90;99.90
14411;DHT22;7290;50.854;4.354;2023-07-09T14:10:11;28.10;99.90
14411;DHT22;7290;50.854;4.354;2023-07-09T14:12:40;28.60;99.90
14411;DHT22;7290;50.854;4.354;2023-07-09T14:15:13;29.20;99.90
14411;DHT22;7290;50.854;4.354;2023-07-09T14:17:40;29.50;99.90
14411;DHT22;7290;50.854;4.354;2023-07-09T14:20:10;29.80;99.90
14411;DHT22;7290;50.854;4.354;2023-07-09T14:22:37;29.80;99.90
14411;DHT22;7290;50.854;4.354;2023-07-09T14:25:05;29.70;99.90
14411;DHT22;7290;50.854;4.354;2023-07-09T14:27:32;29.70;99.90
14411;DHT22;7290;50.854;4.354;2023-07-09T14:29:58;29.80;99.90
14411;DHT22;7290;50.854;4.354;2023-07-09T14:32:33;29.80;99.90
14411;DHT22;7290;50.854;4.354;2023-07-09T14:35:00;29.80;99.90
14411;DHT22;7290;50.854;4.354;2023-07-09T14:37:27;29.50;99.90
14411;DHT22;7290;50.854;4.354;2023-07-09T14:39:53;29.00;99.90
14411;DHT22;7290;50.854;4.354;2023-07-09T14:42:20;28.60;99.90
14411;DHT22;7290;50.854;4.354;2023-07-09T14:44:50;28.70;99.90
14411;DHT22;7290;50.854;4.354;2023-07-09T14:47:20;28.70;99.90
14411;DHT22;7290;50.854;4.354;2023-07-09T14:49:47;28.70;99.90
14411;DHT22;7290;50.854;4.354;2023-07-09T14:52:14;29.10;99.90
14411;DHT22;7290;50.854;4.354;2023-07-09T14:54:43;28.70;99.90
14411;DHT22;7290;50.854;4.354;2023-07-09T14:57:18;28.60;99.90
14411;DHT22;7290;50.854;4.354;2023-07-09T14:59:45;28.60;99.90
14411;DHT22;7290;50.854;4.354;2023-07-09T15:02:22;28.60;99.90
14411;DHT22;7290;50.854;4.354;2023-07-09T15:04:51;28.80;99.90
14411;DHT22;7290;50.854;4.354;2023-07-09T15:07:18;28.70;99.90
14411;DHT22;7290;50.854;4.354;2023-07-09T15:09:44;28.60;99.90
14411;DHT22;7290;50.854;4.354;2023-07-09T15:12:16;28.80;99.90
14411;DHT22;7290;50.854;4.354;2023-07-09T15:14:43;29.20;99.90
14411;DHT22;7290;50.854;4.354;2023-07-09T15:17:10;29.40;99.90
14411;DHT22;7290;50.854;4.354;2023-07-09T15:19:37;29.60;99.90
14411;DHT22;7290;50.854;4.354;2023-07-09T15:24:55;29.80;99.90
14411;DHT22;7290;50.854;4.354;2023-07-09T15:27:23;29.80;99.90
14411;DHT22;7290;50.854;4.354;2023-07-09T15:29:51;29.80;99.90
14411;DHT22;7290;50.854;4.354;2023-07-09T15:32:20;29.80;99.90
14411;DHT22;7290;50.854;4.354;2023-07-09T15:34:47;29.70;99.90
14411;DHT22;7290;50.854;4.354;2023-07-09T15:37:16;29.60;99.90
14411;DHT22;7290;50.854;4.354;2023-07-09T15:39:42;29.50;99.90
14411;DHT22;7290;50.854;4.354;2023-07-09T15:42:10;29.60;99.90
14411;DHT22;7290;50.854;4.354;2023-07-09T15:44:37;29.50;99.90
14411;DHT22;7290;50.854;4.354;2023-07-09T15:47:04;29.60;99.90
14411;DHT22;7290;50.854;4.354;2023-07-09T15:49:32;29.50;99.90
14411;DHT22;7290;50.854;4.354;2023-07-09T15:51:59;29.70;99.90
14411;DHT22;7290;50.854;4.354;2023-07-09T15:54:25;29.80;99.90
14411;DHT22;7290;50.854;4.354;2023-07-09T15:56:53;30.00;99.90